Time;durP1;ratioP1;P1;durP2;ratioP2;P2;SDS_P1;SDS_P2;PMS_P1;PMS_P2;Temp;Humidity;BMP_temperature;BMP_pressure;BME280_temperature;BME280_humidity;BME280_pressure;Samples;Min_cycle;Max_cycle;Signal;HPM_P1;HPM_P2
2023/07/11 00:02:22;;;;;;;3.97;2.08;;;19.00;99.90;;;;;;5056301;28;20040;-66
2023/07/11 00:04:48;;;;;;;4.35;2.15;;;18.90;99.90;;;;;;5074888;28;20044;-65
2023/07/11 00:07:13;;;;;;;6.38;2.20;;;18.90;99.90;;;;;;5066674;28;20070;-65
2023/07/11 00:09:39;;;;;;;4.93;1.88;;;18.90;99.90;;;;;;5073906;28;20040;-65
2023/07/11 00:12:05;;;;;;;5.15;2.00;;;18.90;99.90;;;;;;5062639;28;20049;-66
2023/07/11 00:14:31;;;;;;;4.00;2.00;;;18.80;99.90;;;;;;5066643;28;20040;-66
2023/07/11 00:16:57;;;;;;;5.93;2.30;;;18.80;99.90;;;;;;5073870;28;20047;-66
2023/07/11 00:19:23;;;;;;;4.88;2.20;;;18.80;99.90;;;;;;5064789;28;20029;-66
2023/07/11 00:21:48;;;;;;;3.88;2.08;;;18.80;99.90;;;;;;5074851;28;20115;-65
2023/07/11 00:24:14;;;;;;;3.90;1.60;;;18.80;99.90;;;;;;5066870;28;20033;-66
2023/07/11 00:26:40;;;;;;;4.10;2.05;;;18.80;99.90;;;;;;5060247;28;20033;-66
2023/07/11 00:29:22;;;;;;;5.15;2.17;;;18.80;99.90;;;;;;5071461;28;20067;-65
2023/07/11 00:31:47;;;;;;;4.15;2.33;;;18.80;99.90;;;;;;5073253;28;20047;-66
2023/07/11 00:34:13;;;;;;;5.60;1.92;;;18.70;99.90;;;;;;5073086;28;20024;-66
2023/07/11 00:36:38;;;;;;;6.72;2.15;;;18.70;99.90;;;;;;5066121;28;20029;-65
2023/07/11 00:39:05;;;;;;;5.40;2.28;;;18.70;99.90;;;;;;5070724;28;20068;-66
2023/07/11 00:41:31;;;;;;;6.18;2.05;;;18.70;99.90;;;;;;5068647;28;20111;-65
2023/07/11 00:43:57;;;;;;;6.80;2.08;;;18.70;99.90;;;;;;5073108;28;20363;-65
2023/07/11 00:46:23;;;;;;;6.28;2.10;;;18.60;99.90;;;;;;5067112;28;20058;-65
2023/07/11 00:48:53;;;;;;;6.75;2.50;;;18.70;99.90;;;;;;5066305;28;20111;-65
2023/07/11 00:51:28;;;;;;;6.22;1.90;;;18.70;99.90;;;;;;5074116;28;20032;-66
2023/07/11 00:53:55;;;;;;;6.63;2.60;;;18.70;99.90;;;;;;5074093;28;20051;-65
2023/07/11 00:56:25;;;;;;;8.23;2.50;;;18.70;99.90;;;;;;5056556;28;20067;-66
2023/07/11 00:58:52;;;;;;;6.90;2.35;;;18.70;99.90;;;;;;5071038;28;20063;-66
2023/07/11 01:01:19;;;;;;;4.82;2.45;;;18.70;99.90;;;;;;5059868;28;20104;-65
2023/07/11 01:03:46;;;;;;;8.57;2.72;;;18.70;99.90;;;;;;5070958;28;20070;-65
2023/07/11 01:06:13;;;;;;;5.00;2.45;;;18.80;99.90;;;;;;5072308;28;20407;-65
2023/07/11 01:08:40;;;;;;;5.15;2.40;;;18.80;99.90;;;;;;5070895;28;20040;-65
2023/07/11 01:11:05;;;;;;;6.20;2.45;;;18.80;99.90;;;;;;5072458;28;20063;-65
2023/07/11 01:13:31;;;;;;;7.07;2.65;;;18.70;99.90;;;;;;5073363;28;20044;-65
2023/07/11 01:15:56;;;;;;;7.18;2.70;;;18.70;99.90;;;;;;5071557;28;20036;-66
2023/07/11 01:18:22;;;;;;;6.13;2.67;;;18.70;99.90;;;;;;5066028;28;20378;-65
2023/07/11 01:20:48;;;;;;;9.02;2.70;;;18.70;99.90;;;;;;5064640;28;20119;-65
2023/07/11 01:23:15;;;;;;;6.85;2.60;;;18.70;99.90;;;;;;5064053;28;20082;-66
2023/07/11 01:25:41;;;;;;;4.35;2.42;;;18.70;99.90;;;;;;5064856;28;20041;-66
2023/07/11 01:28:07;;;;;;;8.52;2.83;;;18.70;99.90;;;;;;5069665;28;20036;-66
2023/07/11 01:30:33;;;;;;;8.43;2.83;;;18.70;99.90;;;;;;5070543;28;20123;-65
2023/07/11 01:32:58;;;;;;;5.28;3.00;;;18.70;99.90;;;;;;5071784;28;20467;-65
2023/07/11 01:35:24;;;;;;;7.32;3.10;;;18.70;99.90;;;;;;5071642;28;20036;-65
2023/07/11 01:37:49;;;;;;;6.28;3.00;;;18.70;99.90;;;;;;5062766;28;20064;-65
2023/07/11 01:40:15;;;;;;;5.63;3.00;;;18.70;99.90;;;;;;5073517;28;20035;-65
2023/07/11 01:42:42;;;;;;;4.72;2.90;;;18.60;99.90;;;;;;5068242;28;20040;-65
2023/07/11 01:45:09;;;;;;;8.48;3.50;;;18.70;99.90;;;;;;5070740;28;20079;-65
2023/07/11 01:47:35;;;;;;;8.30;3.28;;;18.60;99.90;;;;;;5068665;28;20444;-65
2023/07/11 01:50:01;;;;;;;5.13;3.15;;;18.60;99.90;;;;;;5059633;28;20040;-65
2023/07/11 01:52:26;;;;;;;7.43;3.33;;;18.60;99.90;;;;;;5055639;28;20036;-65
2023/07/11 01:54:52;;;;;;;6.40;3.97;;;18.50;99.90;;;;;;5071787;28;20078;-66
2023/07/11 01:57:18;;;;;;;7.47;3.72;;;18.50;99.90;;;;;;5072192;28;20033;-66
2023/07/11 01:59:45;;;;;;;6.75;3.63;;;18.50;99.90;;;;;;5072739;28;20490;-66
2023/07/11 02:02:11;;;;;;;8.65;3.95;;;18.50;99.90;;;;;;5067058;28;20032;-66
2023/07/11 02:04:37;;;;;;;7.25;3.50;;;18.50;99.90;;;;;;5072155;28;20033;-66
2023/07/11 02:07:04;;;;;;;6.50;3.97;;;18.50;99.90;;;;;;5056487;28;20486;-66
2023/07/11 02:09:31;;;;;;;9.70;4.07;;;18.40;99.90;;;;;;5071515;28;20402;-66
2023/07/11 02:11:57;;;;;;;8.10;4.25;;;18.40;99.90;;;;;;5060920;28;20102;-66
2023/07/11 02:14:23;;;;;;;7.35;3.83;;;18.40;99.90;;;;;;5072075;28;20043;-66
2023/07/11 02:16:50;;;;;;;6.55;4.00;;;18.40;99.90;;;;;;5056402;28;20388;-66
2023/07/11 02:19:18;;;;;;;7.80;4.32;;;18.40;99.90;;;;;;5072429;28;20028;-66
2023/07/11 02:21:44;;;;;;;9.18;4.35;;;18.40;99.90;;;;;;5070532;28;20398;-66
2023/07/11 02:24:11;;;;;;;8.80;4.25;;;18.40;99.90;;;;;;5060524;28;20035;-65
2023/07/11 02:26:37;;;;;;;7.63;4.20;;;18.40;99.90;;;;;;5069531;28;20577;-65
2023/07/11 02:29:04;;;;;;;9.30;4.47;;;18.40;99.90;;;;;;5070767;28;20044;-65
2023/07/11 02:31:31;;;;;;;8.60;4.32;;;18.40;99.90;;;;;;5071511;28;20086;-65
2023/07/11 02:33:58;;;;;;;8.35;5.20;;;18.30;99.90;;;;;;5070934;28;20040;-65
2023/07/11 02:36:23;;;;;;;7.95;4.38;;;18.30;99.90;;;;;;5068255;28;20037;-65
2023/07/11 02:38:49;;;;;;;10.38;4.50;;;18.40;99.90;;;;;;5071132;28;20044;-65
2023/07/11 02:41:15;;;;;;;6.30;4.15;;;18.30;99.90;;;;;;5067502;28;20037;-65
2023/07/11 02:43:40;;;;;;;11.07;4.80;;;18.40;99.90;;;;;;5066697;28;20044;-66
2023/07/11 02:46:06;;;;;;;7.88;4.38;;;18.30;99.90;;;;;;5063134;28;20097;-65
2023/07/11 02:48:32;;;;;;;7.55;4.65;;;18.40;99.90;;;;;;5071700;28;20060;-66
2023/07/11 02:50:57;;;;;;;12.52;4.82;;;18.40;99.90;;;;;;5070916;28;20040;-66
2023/07/11 02:53:23;;;;;;;9.75;4.50;;;18.40;99.90;;;;;;5071607;28;20110;-65
2023/07/11 02:55:53;;;;;;;8.10;4.80;;;18.30;99.90;;;;;;5067201;28;20044;-66
2023/07/11 02:58:18;;;;;;;10.88;4.85;;;18.30;99.90;;;;;;5070678;28;20029;-66
2023/07/11 03:00:48;;;;;;;11.65;5.03;;;18.30;99.90;;;;;;5068539;28;20040;-66
2023/07/11 03:03:14;;;;;;;8.40;4.53;;;18.30;99.90;;;;;;5067322;28;20484;-66
2023/07/11 03:05:44;;;;;;;8.02;5.22;;;18.30;99.90;;;;;;5070683;28;20166;-66
2023/07/11 03:08:10;;;;;;;8.85;4.93;;;18.30;99.90;;;;;;5071755;28;20036;-66
2023/07/11 03:10:36;;;;;;;11.35;4.80;;;18.30;99.90;;;;;;5070396;28;20509;-66
2023/07/11 03:13:02;;;;;;;10.85;5.35;;;18.30;99.90;;;;;;5069126;28;20049;-66
2023/07/11 03:15:27;;;;;;;8.50;4.45;;;18.30;99.90;;;;;;5060395;28;20040;-66
2023/07/11 03:17:53;;;;;;;11.30;4.63;;;18.30;99.90;;;;;;5067061;28;20067;-66
2023/07/11 03:20:18;;;;;;;9.45;5.20;;;18.30;99.90;;;;;;5070698;28;20394;-66
2023/07/11 03:22:44;;;;;;;10.65;5.60;;;18.30;99.90;;;;;;5071452;28;20048;-66
2023/07/11 03:25:09;;;;;;;10.70;5.53;;;18.20;99.90;;;;;;5070161;28;20115;-66
2023/07/11 03:27:35;;;;;;;9.95;5.32;;;18.20;99.90;;;;;;5071145;28;20033;-66
2023/07/11 03:30:01;;;;;;;9.70;5.13;;;18.20;99.90;;;;;;5070493;28;20119;-66
2023/07/11 03:32:27;;;;;;;9.80;5.20;;;18.20;99.90;;;;;;5069679;28;20451;-66
2023/07/11 03:34:52;;;;;;;9.02;5.57;;;18.20;99.90;;;;;;5065097;28;20029;-66
2023/07/11 03:37:18;;;;;;;11.68;5.57;;;18.20;99.90;;;;;;5071530;28;20510;-65
2023/07/11 03:39:43;;;;;;;10.40;4.80;;;18.20;99.90;;;;;;5068904;28;20041;-66
2023/07/11 03:42:09;;;;;;;8.40;5.13;;;18.10;99.90;;;;;;5068982;28;20059;-66
2023/07/11 03:44:35;;;;;;;9.35;5.65;;;18.10;99.90;;;;;;5065260;28;20049;-66
2023/07/11 03:47:00;;;;;;;7.38;5.05;;;18.20;99.90;;;;;;5070298;28;20028;-66
2023/07/11 03:49:26;;;;;;;8.13;5.30;;;18.10;99.90;;;;;;5071728;28;20456;-66
2023/07/11 03:51:52;;;;;;;8.82;5.30;;;18.10;99.90;;;;;;5065940;28;20040;-66
2023/07/11 03:54:17;;;;;;;8.48;5.20;;;18.10;99.90;;;;;;5071044;28;20028;-66
2023/07/11 03:56:43;;;;;;;8.55;5.15;;;18.10;99.90;;;;;;5069873;28;20036;-66
2023/07/11 03:59:09;;;;;;;8.35;4.88;;;18.10;99.90;;;;;;5071317;28;20068;-66
2023/07/11 04:01:35;;;;;;;10.05;5.10;;;18.10;99.90;;;;;;5067676;28;20039;-66
2023/07/11 04:04:01;;;;;;;8.07;5.07;;;18.10;99.90;;;;;;5065269;28;20048;-66
2023/07/11 04:06:26;;;;;;;8.50;5.15;;;18.10;99.90;;;;;;5069649;28;20043;-66
2023/07/11 04:08:52;;;;;;;7.25;4.78;;;18.10;99.90;;;;;;5065153;28;20037;-66
2023/07/11 04:11:18;;;;;;;9.68;5.45;;;18.20;99.90;;;;;;5050930;28;20112;-66
2023/07/11 04:13:43;;;;;;;9.88;4.78;;;18.10;99.90;;;;;;5070192;28;20120;-66
2023/07/11 04:16:09;;;;;;;11.10;5.47;;;18.20;99.90;;;;;;5061099;28;20040;-66
2023/07/11 04:18:34;;;;;;;7.10;4.95;;;18.20;99.90;;;;;;5065670;28;20038;-66
2023/07/11 04:21:00;;;;;;;8.38;4.68;;;18.20;99.90;;;;;;5070156;28;20559;-66
2023/07/11 04:23:26;;;;;;;10.85;4.90;;;18.20;99.90;;;;;;5069591;28;20120;-66
2023/07/11 04:25:52;;;;;;;6.88;4.78;;;18.20;99.90;;;;;;5062490;28;20491;-66
2023/07/11 04:28:18;;;;;;;8.27;4.72;;;18.20;99.90;;;;;;5071318;28;20040;-66
2023/07/11 04:30:43;;;;;;;10.45;5.30;;;18.30;99.90;;;;;;5070124;28;20062;-66
2023/07/11 04:33:09;;;;;;;6.70;5.15;;;18.30;99.90;;;;;;5065711;28;20037;-67
2023/07/11 04:35:34;;;;;;;7.93;5.20;;;18.30;99.90;;;;;;5063802;28;20115;-64
2023/07/11 04:38:00;;;;;;;9.88;4.93;;;18.50;99.90;;;;;;5070846;28;20055;-66
2023/07/11 04:40:26;;;;;;;8.55;5.03;;;18.40;99.90;;;;;;5072822;28;20044;-66
2023/07/11 04:42:52;;;;;;;9.70;5.82;;;18.40;99.90;;;;;;5071613;28;20414;-65
2023/07/11 04:45:17;;;;;;;9.98;5.45;;;18.50;99.90;;;;;;5072578;28;20024;-65
2023/07/11 04:47:43;;;;;;;9.35;4.82;;;18.50;99.90;;;;;;5072482;28;20111;-66
2023/07/11 04:50:09;;;;;;;8.38;4.70;;;18.60;99.90;;;;;;5060670;28;20028;-65
2023/07/11 04:52:34;;;;;;;10.52;5.15;;;18.60;99.90;;;;;;5067918;28;20543;-65
2023/07/11 04:55:00;;;;;;;7.65;5.03;;;18.60;99.90;;;;;;5081828;22;20070;-68
2023/07/11 04:57:26;;;;;;;8.95;4.70;;;18.70;99.90;;;;;;5072319;28;20074;-68
2023/07/11 04:59:51;;;;;;;8.68;4.90;;;18.70;99.90;;;;;;5071603;28;20108;-68
2023/07/11 05:02:17;;;;;;;7.43;4.85;;;18.70;99.90;;;;;;5080567;28;20043;-68
2023/07/11 05:04:42;;;;;;;7.78;4.90;;;18.70;99.90;;;;;;5070101;28;20048;-68
2023/07/11 05:07:09;;;;;;;9.40;5.20;;;18.70;99.90;;;;;;5073722;28;20043;-68
2023/07/11 05:09:37;;;;;;;8.95;5.07;;;18.70;99.90;;;;;;5068777;28;20086;-68
2023/07/11 05:12:04;;;;;;;8.70;5.18;;;18.70;99.90;;;;;;5066468;28;20564;-69
2023/07/11 05:14:30;;;;;;;7.43;5.07;;;18.70;99.90;;;;;;5073595;28;20101;-68
2023/07/11 05:16:55;;;;;;;9.55;5.28;;;18.70;99.90;;;;;;5072025;28;20044;-69
2023/07/11 05:19:21;;;;;;;11.07;5.63;;;18.70;99.90;;;;;;5072074;28;20123;-68
2023/07/11 05:21:47;;;;;;;9.55;6.00;;;18.80;99.90;;;;;;5073134;28;20035;-68
2023/07/11 05:24:12;;;;;;;7.80;5.30;;;18.90;99.90;;;;;;5067448;28;20035;-68
2023/07/11 05:26:38;;;;;;;10.18;5.45;;;19.00;99.90;;;;;;5066711;28;20037;-68
2023/07/11 05:29:04;;;;;;;10.75;5.70;;;19.10;99.90;;;;;;5071400;28;20060;-68
2023/07/11 05:31:30;;;;;;;8.93;5.45;;;19.20;99.90;;;;;;5072169;28;20111;-68
2023/07/11 05:33:56;;;;;;;10.05;5.70;;;19.30;99.90;;;;;;5068419;28;20129;-68
2023/07/11 05:36:32;;;;;;;9.07;6.10;;;19.40;99.90;;;;;;5060965;28;20115;-68
2023/07/11 05:39:03;;;;;;;11.20;5.97;;;19.50;99.90;;;;;;5073665;28;20032;-67
2023/07/11 05:41:29;;;;;;;7.15;4.72;;;19.60;99.90;;;;;;5073502;28;20136;-68
2023/07/11 05:43:55;;;;;;;9.43;5.85;;;19.70;99.90;;;;;;5065038;28;20513;-68
2023/07/11 05:46:22;;;;;;;9.18;5.15;;;19.80;99.90;;;;;;5067744;28;20058;-68
2023/07/11 05:48:48;;;;;;;10.05;5.38;;;19.90;99.90;;;;;;5064601;28;20040;-68
2023/07/11 05:51:15;;;;;;;8.65;4.97;;;20.00;99.90;;;;;;5067542;28;20115;-68
2023/07/11 05:53:41;;;;;;;10.80;5.28;;;20.20;99.90;;;;;;5068556;28;20521;-67
2023/07/11 05:56:07;;;;;;;9.40;5.25;;;20.40;99.90;;;;;;5066437;28;20040;-68
2023/07/11 05:58:33;;;;;;;8.30;5.45;;;20.40;99.90;;;;;;5067454;28;20037;-68
2023/07/11 06:01:00;;;;;;;8.15;5.13;;;20.50;99.90;;;;;;5072616;28;20546;-68
2023/07/11 06:03:29;;;;;;;10.60;5.00;;;20.50;99.90;;;;;;5071158;28;20051;-68
2023/07/11 06:06:00;;;;;;;6.85;4.78;;;20.50;99.90;;;;;;5069599;28;20448;-68
2023/07/11 06:08:26;;;;;;;14.43;5.28;;;20.50;99.90;;;;;;5067486;28;20048;-67
2023/07/11 06:10:55;;;;;;;8.82;4.90;;;20.50;99.90;;;;;;5057679;28;20081;-67
2023/07/11 06:13:20;;;;;;;7.55;4.53;;;20.60;99.90;;;;;;5068655;28;20089;-69
2023/07/11 06:15:46;;;;;;;6.97;4.63;;;20.70;99.90;;;;;;5072368;28;20041;-68
2023/07/11 06:18:12;;;;;;;7.50;4.25;;;20.80;99.90;;;;;;5073141;28;20383;-68
2023/07/11 06:20:37;;;;;;;9.90;5.22;;;21.00;99.90;;;;;;5070257;28;20029;-69
2023/07/11 06:23:03;;;;;;;7.47;4.80;;;21.10;99.90;;;;;;5072119;28;20048;-68
2023/07/11 06:25:28;;;;;;;10.77;5.32;;;21.10;99.90;;;;;;5066816;28;20044;-68
2023/07/11 06:27:54;;;;;;;9.52;4.95;;;21.10;99.90;;;;;;5069905;28;20036;-68
2023/07/11 06:30:20;;;;;;;8.52;4.43;;;21.10;99.90;;;;;;5057222;28;20033;-68
2023/07/11 06:32:45;;;;;;;7.53;4.32;;;21.10;99.90;;;;;;5069743;28;20072;-68
2023/07/11 06:35:11;;;;;;;8.30;3.80;;;21.10;99.90;;;;;;5071971;28;20032;-68
2023/07/11 06:37:37;;;;;;;7.03;4.05;;;21.20;99.90;;;;;;5070844;28;20028;-70
2023/07/11 06:40:06;;;;;;;6.40;3.70;;;21.20;99.90;;;;;;5068787;28;20044;-68
2023/07/11 06:42:32;;;;;;;6.45;3.90;;;21.30;99.90;;;;;;5067528;28;20052;-67
2023/07/11 06:44:57;;;;;;;4.55;3.47;;;21.30;99.90;;;;;;5069177;28;20489;-68
2023/07/11 06:47:23;;;;;;;7.70;4.03;;;21.40;99.90;;;;;;5057306;28;20124;-67
2023/07/11 06:49:49;;;;;;;9.88;3.70;;;21.40;99.90;;;;;;5069142;28;20040;-68
2023/07/11 06:52:14;;;;;;;6.30;3.78;;;21.40;99.90;;;;;;5071693;28;20080;-68
2023/07/11 06:54:40;;;;;;;5.90;3.60;;;21.50;99.90;;;;;;5070268;28;20070;-68
2023/07/11 06:57:06;;;;;;;7.80;3.40;;;21.50;99.90;;;;;;5063335;28;20085;-68
2023/07/11 06:59:31;;;;;;;6.70;3.42;;;21.60;99.90;;;;;;5061853;28;20043;-69
2023/07/11 07:01:57;;;;;;;5.97;3.42;;;21.70;99.90;;;;;;5060235;28;20467;-68
2023/07/11 07:04:22;;;;;;;6.78;3.60;;;21.90;99.90;;;;;;5062780;28;20040;-69
2023/07/11 07:06:48;;;;;;;7.15;3.55;;;22.10;99.90;;;;;;5063467;28;20028;-69
2023/07/11 07:09:13;;;;;;;6.28;3.67;;;22.10;99.90;;;;;;5063454;28;20398;-68
2023/07/11 07:11:41;;;;;;;4.68;3.42;;;22.20;99.90;;;;;;5069361;28;20154;-67
2023/07/11 07:14:10;;;;;;;7.70;3.60;;;22.40;99.90;;;;;;5059960;28;20032;-68
2023/07/11 07:16:39;;;;;;;7.90;3.60;;;22.60;99.90;;;;;;5068888;28;20042;-67
2023/07/11 07:19:08;;;;;;;5.20;2.97;;;22.80;99.90;;;;;;5071999;28;20047;-68
2023/07/11 07:21:34;;;;;;;6.28;4.10;;;22.90;99.90;;;;;;5069942;28;20486;-67
2023/07/11 07:24:00;;;;;;;6.95;3.65;;;23.00;99.90;;;;;;5070214;28;20046;-68
2023/07/11 07:26:26;;;;;;;7.32;3.53;;;23.10;99.90;;;;;;5068922;28;20405;-67
2023/07/11 07:28:51;;;;;;;7.15;3.67;;;23.10;99.90;;;;;;5073341;28;20040;-67
2023/07/11 07:31:17;;;;;;;6.22;3.58;;;23.20;99.90;;;;;;5071231;28;20036;-67
2023/07/11 07:33:43;;;;;;;10.90;3.78;;;23.30;99.90;;;;;;5070669;28;20426;-69
2023/07/11 07:36:11;;;;;;;8.57;3.33;;;23.50;99.90;;;;;;5047721;28;20741;-70
2023/07/11 07:38:36;;;;;;;6.28;3.20;;;23.70;99.90;;;;;;5066662;28;20042;-69
2023/07/11 07:41:05;;;;;;;6.15;3.20;;;23.80;99.90;;;;;;5067122;28;20032;-70
2023/07/11 07:43:31;;;;;;;6.93;3.08;;;23.90;99.90;;;;;;5061657;28;20086;-69
2023/07/11 07:45:58;;;;;;;6.28;2.83;;;24.00;99.90;;;;;;5073435;28;20050;-70
2023/07/11 07:48:25;;;;;;;9.02;3.05;;;24.10;99.90;;;;;;5070860;28;20056;-69
2023/07/11 07:50:50;;;;;;;8.48;3.08;;;24.20;99.90;;;;;;5069936;28;20160;-68
2023/07/11 07:53:17;;;;;;;5.05;2.70;;;24.40;99.90;;;;;;5063790;28;20461;-69
2023/07/11 07:55:43;;;;;;;6.93;3.58;;;24.50;99.90;;;;;;5062839;28;20490;-71
2023/07/11 07:58:10;;;;;;;8.10;3.42;;;24.80;99.90;;;;;;5071995;28;20072;-70
2023/07/11 08:00:36;;;;;;;6.72;2.92;;;25.00;99.90;;;;;;5068043;28;20037;-68
2023/07/11 08:03:01;;;;;;;7.60;3.00;;;25.20;99.90;;;;;;5054301;28;20040;-69
2023/07/11 08:05:27;;;;;;;5.65;2.97;;;25.30;99.90;;;;;;5064562;28;20049;-69
2023/07/11 08:07:53;;;;;;;7.68;3.00;;;25.50;99.90;;;;;;5059040;28;20036;-70
2023/07/11 08:10:18;;;;;;;6.50;2.53;;;25.70;99.90;;;;;;5066540;28;20032;-69
2023/07/11 08:12:44;;;;;;;5.22;2.70;;;25.90;99.90;;;;;;5063585;28;20033;-69
2023/07/11 08:15:11;;;;;;;5.35;2.53;;;26.00;99.70;;;;;;5070270;28;20043;-68
2023/07/11 08:17:38;;;;;;;4.72;2.58;;;26.00;98.90;;;;;;5076429;28;20033;-68
2023/07/11 08:20:05;;;;;;;8.40;2.58;;;26.10;99.40;;;;;;5067161;28;20032;-66
2023/07/11 08:22:31;;;;;;;6.50;2.25;;;26.30;99.00;;;;;;5075690;28;20040;-67
2023/07/11 08:24:57;;;;;;;5.43;2.28;;;26.40;98.10;;;;;;5074416;28;20078;-67
2023/07/11 08:27:22;;;;;;;6.35;2.75;;;26.50;97.50;;;;;;5077673;28;20050;-67
2023/07/11 08:29:48;;;;;;;5.40;2.30;;;26.60;96.50;;;;;;5072629;28;20044;-68
2023/07/11 08:32:15;;;;;;;6.00;2.42;;;26.80;95.70;;;;;;5071495;28;20147;-68
2023/07/11 08:34:41;;;;;;;4.45;2.25;;;26.80;95.20;;;;;;5071991;28;20033;-67
2023/07/11 08:37:07;;;;;;;5.68;2.50;;;26.90;94.40;;;;;;5074583;28;20438;-67
2023/07/11 08:39:33;;;;;;;5.25;2.28;;;26.90;94.00;;;;;;5071326;28;20390;-67
2023/07/11 08:42:12;;;;;;;5.32;2.20;;;27.00;94.10;;;;;;5070293;28;20029;-67
2023/07/11 08:44:49;;;;;;;8.60;2.35;;;27.10;93.40;;;;;;5070418;28;20544;-67
2023/07/11 08:47:36;;;;;;;7.18;2.28;;;27.10;93.00;;;;;;5057002;28;20051;-67
2023/07/11 08:50:10;;;;;;;5.88;2.40;;;27.20;93.20;;;;;;5070405;28;20041;-67
2023/07/11 08:52:36;;;;;;;5.88;2.40;;;27.20;92.20;;;;;;5068843;28;20067;-66
2023/07/11 08:55:13;;;;;;;8.50;2.60;;;27.30;92.00;;;;;;5071965;28;20514;-66
2023/07/11 08:57:45;;;;;;;11.10;2.50;;;27.40;91.90;;;;;;5063558;28;20109;-66
2023/07/11 09:00:15;;;;;;;6.55;2.85;;;27.60;92.20;;;;;;5064544;28;20561;-67
2023/07/11 09:03:11;;;;;;;8.57;2.75;;;27.70;92.10;;;;;;5071533;28;20041;-67
2023/07/11 09:06:06;;;;;;;10.80;2.70;;;27.80;92.10;;;;;;5069958;28;20074;-67
2023/07/11 09:08:32;;;;;;;6.00;2.47;;;27.80;91.40;;;;;;5068659;28;20071;-67
2023/07/11 09:11:20;;;;;;;7.07;2.42;;;27.90;91.00;;;;;;5072132;28;20040;-67
2023/07/11 09:14:10;;;;;;;4.68;2.60;;;28.00;91.40;;;;;;5073231;28;20608;-67
2023/07/11 09:16:52;;;;;;;7.10;2.22;;;28.10;90.50;;;;;;5071125;28;20041;-67
2023/07/11 09:19:29;;;;;;;7.32;2.50;;;28.20;91.00;;;;;;5070587;28;20047;-67
2023/07/11 09:22:23;;;;;;;6.55;2.40;;;28.20;87.40;;;;;;5068239;28;20028;-67
2023/07/11 09:24:52;;;;;;;4.65;2.03;;;28.20;85.60;;;;;;5060405;28;20073;-67
2023/07/11 09:27:36;;;;;;;6.40;2.83;;;28.20;87.00;;;;;;5067403;28;20033;-67
2023/07/11 09:30:20;;;;;;;6.22;2.92;;;28.20;87.60;;;;;;5054145;28;20028;-67
2023/07/11 09:32:46;;;;;;;4.95;2.13;;;28.40;86.50;;;;;;5072022;28;20044;-67
2023/07/11 09:35:24;;;;;;;6.47;2.70;;;28.50;87.40;;;;;;5070907;28;20522;-67
2023/07/11 09:37:55;;;;;;;4.30;2.53;;;28.60;86.60;;;;;;5066479;28;20037;-67
2023/07/11 09:40:26;;;;;;;5.28;2.33;;;28.70;85.80;;;;;;5065563;28;20066;-67
2023/07/11 09:42:54;;;;;;;4.00;2.08;;;28.70;84.60;;;;;;5070496;28;20073;-67
2023/07/11 09:45:27;;;;;;;4.22;2.03;;;28.80;84.90;;;;;;5070210;28;20425;-67
2023/07/11 09:48:04;;;;;;;6.00;2.47;;;28.90;83.70;;;;;;5072225;28;20124;-68
2023/07/11 09:50:55;;;;;;;6.32;2.45;;;29.00;81.80;;;;;;5063027;28;20521;-67
2023/07/11 09:53:23;;;;;;;4.18;2.35;;;29.00;82.10;;;;;;5057401;28;20142;-67
2023/07/11 09:56:04;;;;;;;8.30;2.60;;;29.00;81.70;;;;;;5067228;28;20166;-68
2023/07/11 09:58:32;;;;;;;6.18;2.30;;;29.00;80.90;;;;;;5064263;28;20041;-67
2023/07/11 10:01:01;;;;;;;8.50;2.38;;;29.00;81.30;;;;;;5068908;28;20032;-67
2023/07/11 10:03:28;;;;;;;4.88;1.65;;;29.10;81.10;;;;;;5072497;28;20756;-67
2023/07/11 10:05:55;;;;;;;8.23;2.42;;;29.10;76.20;;;;;;5071030;28;20520;-67
2023/07/11 10:08:29;;;;;;;3.63;1.75;;;29.10;74.30;;;;;;5072870;28;20399;-67
2023/07/11 10:11:01;;;;;;;3.08;1.90;;;29.00;73.40;;;;;;5070985;28;20037;-68
2023/07/11 10:13:27;;;;;;;4.32;1.85;;;29.10;74.40;;;;;;5070599;28;21307;-68
2023/07/11 10:15:55;;;;;;;6.38;2.45;;;29.10;72.30;;;;;;5062745;28;20501;-68
2023/07/11 10:18:25;;;;;;;4.47;1.77;;;29.20;72.30;;;;;;5071964;28;20120;-67
2023/07/11 10:20:55;;;;;;;3.72;1.55;;;29.10;71.40;;;;;;5066156;28;20486;-68
2023/07/11 10:23:24;;;;;;;6.38;2.05;;;29.10;71.50;;;;;;5069125;28;20036;-68
2023/07/11 10:26:09;;;;;;;5.72;1.67;;;29.10;71.00;;;;;;5064543;28;20036;-67
2023/07/11 10:28:42;;;;;;;6.18;2.15;;;29.10;70.60;;;;;;5062567;28;20076;-68
2023/07/11 10:31:13;;;;;;;4.20;1.95;;;29.20;70.90;;;;;;5070147;28;20032;-68
2023/07/11 10:33:57;;;;;;;6.78;1.88;;;29.20;70.40;;;;;;5066318;28;20040;-67
2023/07/11 10:36:35;;;;;;;6.38;1.92;;;29.30;69.80;;;;;;5060644;28;20028;-68
2023/07/11 10:39:09;;;;;;;6.07;1.92;;;29.40;70.50;;;;;;5058967;28;20035;-68
2023/07/11 10:41:55;;;;;;;4.50;1.50;;;29.40;69.90;;;;;;5058190;28;20037;-67
2023/07/11 10:44:30;;;;;;;3.65;1.40;;;29.40;69.90;;;;;;5061138;28;20520;-67
2023/07/11 10:46:56;;;;;;;2.60;1.70;;;29.40;69.50;;;;;;5061356;28;20040;-67
2023/07/11 10:49:43;;;;;;;6.85;1.88;;;29.40;70.50;;;;;;5064746;28;20090;-68
2023/07/11 10:52:23;;;;;;;3.60;1.60;;;29.50;71.90;;;;;;5071889;28;20029;-68
2023/07/11 10:57:44;;;;;;;6.45;2.05;;;29.50;70.10;;;;;;5056878;28;20425;-64
2023/07/11 11:00:22;;;;;;;3.70;2.00;;;29.50;70.40;;;;;;5032785;28;20045;-65
2023/07/11 11:03:12;;;;;;;2.67;1.50;;;29.60;71.40;;;;;;5048691;28;20507;-65
2023/07/11 11:05:57;;;;;;;4.68;1.70;;;29.60;71.40;;;;;;5036498;28;20034;-64
2023/07/11 11:08:46;;;;;;;3.25;1.90;;;29.70;71.10;;;;;;5040739;28;20067;-65
2023/07/11 11:11:27;;;;;;;6.03;2.22;;;29.80;70.60;;;;;;5049191;28;20036;-65
2023/07/11 11:14:04;;;;;;;4.28;1.80;;;30.00;72.10;;;;;;5046843;28;20076;-65
2023/07/11 11:16:31;;;;;;;5.70;1.80;;;30.00;70.50;;;;;;5049685;28;20041;-65
2023/07/11 11:19:33;;;;;;;2.70;1.77;;;30.00;69.60;;;;;;5048714;28;20043;-65
2023/07/11 11:22:22;;;;;;;6.03;1.85;;;29.90;69.60;;;;;;5038215;28;20032;-64
2023/07/11 11:24:53;;;;;;;4.47;1.90;;;29.80;70.30;;;;;;5044380;28;20029;-65
2023/07/11 11:27:57;;;;;;;5.57;2.17;;;29.80;70.30;;;;;;5043999;28;20037;-65
2023/07/11 11:30:33;;;;;;;3.97;1.70;;;29.90;69.20;;;;;;5043152;28;20479;-64
2023/07/11 11:33:08;;;;;;;3.90;2.10;;;29.80;69.60;;;;;;5041568;28;20166;-64
2023/07/11 11:35:59;;;;;;;9.95;2.15;;;29.80;70.40;;;;;;5044077;28;20040;-64
2023/07/11 11:39:05;;;;;;;3.83;1.77;;;30.00;71.20;;;;;;5044916;28;20115;-64
2023/07/11 11:41:39;;;;;;;5.25;1.70;;;30.10;70.00;;;;;;5043453;28;20033;-65
2023/07/11 11:44:22;;;;;;;3.83;1.60;;;30.10;69.00;;;;;;5042349;28;20091;-65
2023/07/11 11:46:50;;;;;;;4.13;1.90;;;30.10;69.20;;;;;;5043971;28;20086;-65
2023/07/11 11:49:16;;;;;;;4.25;1.70;;;30.10;68.80;;;;;;5049418;28;20084;-64
2023/07/11 11:51:44;;;;;;;3.92;1.70;;;30.20;69.60;;;;;;5047343;28;20037;-65
2023/07/11 11:54:17;;;;;;;4.03;2.00;;;30.20;69.70;;;;;;5045575;28;20048;-65
2023/07/11 11:56:47;;;;;;;6.55;2.10;;;30.20;69.10;;;;;;5045864;28;20033;-65
2023/07/11 11:59:17;;;;;;;3.95;1.80;;;30.30;68.50;;;;;;5048710;28;20033;-64
2023/07/11 12:01:55;;;;;;;;;;;30.30;69.20;;;;;;5049373;28;20042;-65
2023/07/11 12:04:27;;;;;;;4.43;1.60;;;30.10;69.00;;;;;;5047073;28;19917;-64
2023/07/11 12:07:12;;;;;;;4.80;2.08;;;30.10;70.20;;;;;;5046178;28;20495;-65
2023/07/11 12:13:17;;;;;;;7.15;2.00;;;30.10;70.00;;;;;;5046461;28;20106;-65
2023/07/11 12:15:47;;;;;;;4.22;2.17;;;30.00;70.70;;;;;;5050610;28;20041;-65
2023/07/11 12:18:24;;;;;;;3.13;1.67;;;30.00;69.60;;;;;;5049509;28;20037;-66
2023/07/11 12:21:14;;;;;;;5.78;1.55;;;30.10;69.50;;;;;;5053216;28;20037;-65
2023/07/11 12:23:43;;;;;;;;;;;30.30;68.50;;;;;;5052055;28;20051;-65
2023/07/11 12:26:09;;;;;;;3.40;1.75;;;30.20;68.90;;;;;;5051456;28;20341;-65
2023/07/11 12:28:35;;;;;;;3.13;1.70;;;30.00;68.30;;;;;;5051613;28;20056;-65
2023/07/11 12:31:15;;;;;;;4.57;2.13;;;29.90;68.30;;;;;;5053562;28;20537;-65
2023/07/11 12:33:40;;;;;;;3.38;1.67;;;29.90;69.10;;;;;;5048781;28;20495;-65
2023/07/11 12:36:06;;;;;;;4.40;1.67;;;29.90;69.80;;;;;;5043753;28;20037;-65
2023/07/11 12:38:43;;;;;;;5.10;1.85;;;29.80;67.70;;;;;;5052783;28;20089;-66
2023/07/11 12:41:51;;;;;;;5.32;2.17;;;29.90;67.60;;;;;;5080846;28;20041;-66
2023/07/11 12:44:18;;;;;;;4.85;2.00;;;30.10;67.10;;;;;;5019453;28;20040;-65
2023/07/11 12:46:48;;;;;;;3.33;1.90;;;30.10;67.50;;;;;;5048997;28;20443;-65
2023/07/11 12:49:27;;;;;;;2.42;1.63;;;30.10;66.50;;;;;;5051776;28;20031;-66
2023/07/11 12:52:08;;;;;;;4.55;1.60;;;30.00;65.50;;;;;;5046084;28;20067;-66
2023/07/11 12:54:34;;;;;;;3.45;1.67;;;29.90;66.00;;;;;;5051391;28;20077;-66
2023/07/11 12:57:00;;;;;;;6.03;1.88;;;29.70;65.30;;;;;;5046128;28;20128;-66
2023/07/11 12:59:30;;;;;;;4.18;1.75;;;29.60;64.70;;;;;;5045538;28;20124;-66
2023/07/11 13:01:59;;;;;;;3.58;1.60;;;29.50;64.00;;;;;;5049845;28;20072;-66
2023/07/11 13:04:30;;;;;;;3.40;2.03;;;29.40;63.80;;;;;;5050241;28;20091;-66